createdAt,value
2023-03-20T00:02:09.657Z,98176.44
2023-03-20T00:04:39.074Z,98182.69
2023-03-20T00:07:10.677Z,98172.69
2023-03-20T00:09:39.346Z,98185.41
2023-03-20T00:12:11.157Z,98185.41
2023-03-20T00:14:39.710Z,98185.50
2023-03-20T00:17:11.772Z,98185.28
2023-03-20T00:19:40.330Z,98184.03
2023-03-20T00:22:10.251Z,98181.53
2023-03-20T00:24:38.884Z,98189.97
2023-03-20T00:27:10.988Z,98190.22
2023-03-20T00:29:39.470Z,98183.56
2023-03-20T00:32:13.227Z,98177.84
2023-03-20T00:34:42.079Z,98172.19
2023-03-20T00:37:11.822Z,98178.53
2023-03-20T00:39:40.461Z,98171.38
2023-03-20T00:42:15.000Z,98171.03
2023-03-20T00:44:49.809Z,98173.69
2023-03-20T00:47:20.081Z,98177.09
2023-03-20T00:49:50.809Z,98179.91
2023-03-20T00:52:19.602Z,98176.28
2023-03-20T00:54:48.227Z,98174.66
2023-03-20T00:57:21.682Z,98169.25
2023-03-20T00:59:53.284Z,98167.75
2023-03-20T01:02:23.215Z,98161.16
2023-03-20T01:04:52.495Z,98164.56
2023-03-20T01:07:20.806Z,98161.13
2023-03-20T01:09:49.350Z,98155.97
2023-03-20T01:12:18.885Z,98154.84
2023-03-20T01:14:47.844Z,98157.53
2023-03-20T01:17:19.575Z,98152.41
2023-03-20T01:19:48.657Z,98154.56
2023-03-20T01:22:18.048Z,98161.16
2023-03-20T01:24:47.428Z,98151.59
2023-03-20T01:27:17.218Z,98152.19
2023-03-20T01:29:47.758Z,98161.72
2023-03-20T01:32:17.983Z,98157.69
2023-03-20T01:34:47.736Z,98153.88
2023-03-20T01:37:20.299Z,98160.28
2023-03-20T01:39:48.948Z,98162.34
2023-03-20T01:42:18.308Z,98151.97
2023-03-20T01:44:48.752Z,98165.09
2023-03-20T01:47:19.238Z,98164.28
2023-03-20T01:50:22.602Z,98165.63
2023-03-20T01:52:52.960Z,98177.91
2023-03-20T01:55:22.182Z,98166.94
2023-03-20T01:57:52.282Z,98171.41
2023-03-20T02:00:24.049Z,98171.03
2023-03-20T02:02:52.080Z,98170.34
2023-03-20T02:05:22.380Z,98174.44
2023-03-20T02:07:55.812Z,98178.44
2023-03-20T02:10:24.440Z,98171.97
2023-03-20T02:12:53.572Z,98178.38
2023-03-20T02:15:23.400Z,98174.06
2023-03-20T02:17:51.598Z,98179.03
2023-03-20T02:20:31.835Z,98181.09
2023-03-20T02:23:53.510Z,98186.03
2023-03-20T02:26:44.279Z,98177.03
2023-03-20T02:30:01.371Z,98176.44
2023-03-20T02:33:26.454Z,98178.00
2023-03-20T02:36:43.414Z,98184.22
2023-03-20T02:39:36.842Z,98182.91
2023-03-20T02:42:11.375Z,98171.78
2023-03-20T02:44:45.186Z,98174.13
2023-03-20T02:47:16.567Z,98169.09
2023-03-20T02:49:54.840Z,98166.41
2023-03-20T02:52:28.013Z,98166.56
2023-03-20T02:55:07.214Z,98165.91
2023-03-20T02:57:43.070Z,98160.06
2023-03-20T03:00:14.891Z,98171.69
2023-03-20T03:02:44.358Z,98164.28
2023-03-20T03:05:16.766Z,98164.03
2023-03-20T03:07:47.092Z,98159.94
2023-03-20T03:10:19.987Z,98168.94
2023-03-20T03:12:49.314Z,98159.84
2023-03-20T03:15:22.271Z,98166.25
2023-03-20T03:17:50.755Z,98168.75
2023-03-20T03:20:23.226Z,98158.50
2023-03-20T03:22:51.928Z,98164.72
2023-03-20T03:25:25.609Z,98167.06
2023-03-20T03:28:02.404Z,98154.72
2023-03-20T03:30:33.052Z,98159.03
2023-03-20T03:33:11.178Z,98162.06
2023-03-20T03:35:40.346Z,98168.13
2023-03-20T03:38:24.320Z,98166.28
2023-03-20T03:41:02.367Z,98165.31
2023-03-20T03:43:33.390Z,98157.97
2023-03-20T03:46:06.156Z,98159.47
2023-03-20T03:48:37.216Z,98162.50
2023-03-20T03:51:09.188Z,98163.53
2023-03-20T03:53:41.367Z,98163.16
2023-03-20T03:56:13.356Z,98163.16
2023-03-20T03:58:43.756Z,98156.72
2023-03-20T04:01:14.081Z,98159.47
2023-03-20T04:03:44.245Z,98158.78
2023-03-20T04:06:13.709Z,98166.59
2023-03-20T04:08:42.337Z,98165.69
2023-03-20T04:11:16.045Z,98165.53
2023-03-20T04:13:44.293Z,98168.22
2023-03-20T04:16:15.276Z,98171.28
2023-03-20T04:18:43.751Z,98162.44
2023-03-20T04:21:12.662Z,98163.69
2023-03-20T04:23:40.897Z,98159.72
2023-03-20T04:26:09.551Z,98162.16
2023-03-20T04:28:39.298Z,98162.97
2023-03-20T04:31:08.469Z,98169.53
2023-03-20T04:33:36.717Z,98166.06
2023-03-20T04:36:06.460Z,98174.00
2023-03-20T04:38:34.896Z,98169.81
2023-03-20T04:41:03.678Z,98170.41
2023-03-20T04:43:31.998Z,98166.25
2023-03-20T04:46:01.942Z,98176.44
2023-03-20T04:48:30.448Z,98171.28
2023-03-20T04:50:58.968Z,98172.94
2023-03-20T04:53:27.385Z,98162.91
2023-03-20T04:55:55.831Z,98170.94
2023-03-20T04:58:24.116Z,98171.56
2023-03-20T05:00:52.759Z,98175.16
2023-03-20T05:03:24.033Z,98183.81
2023-03-20T05:05:52.772Z,98181.03
2023-03-20T05:08:21.231Z,98186.22
2023-03-20T05:10:49.733Z,98191.88
2023-03-20T05:13:17.933Z,98194.13
2023-03-20T05:15:46.562Z,98191.09
2023-03-20T05:18:14.792Z,98195.25
2023-03-20T05:20:44.736Z,98183.06
2023-03-20T05:23:13.024Z,98187.84
2023-03-20T05:25:41.726Z,98189.38
2023-03-20T05:28:09.989Z,98184.75
2023-03-20T05:30:39.941Z,98193.44
2023-03-20T05:33:08.466Z,98183.47
2023-03-20T05:35:37.349Z,98186.47
2023-03-20T05:38:07.245Z,98194.44
2023-03-20T05:40:35.961Z,98197.91
2023-03-20T05:43:05.798Z,98193.00
2023-03-20T05:45:34.812Z,98195.81
2023-03-20T05:48:03.458Z,98196.28
2023-03-20T05:50:32.137Z,98190.03
2023-03-20T05:53:01.014Z,98195.53
2023-03-20T05:55:31.170Z,98186.69
2023-03-20T05:57:59.396Z,98192.09
2023-03-20T06:00:28.209Z,98186.59
2023-03-20T06:02:57.244Z,98184.13
2023-03-20T06:05:26.187Z,98186.28
2023-03-20T06:07:54.578Z,98189.31
2023-03-20T06:10:23.132Z,98190.84
2023-03-20T06:12:52.859Z,98193.72
2023-03-20T06:15:21.923Z,98198.59
2023-03-20T06:17:50.516Z,98203.13
2023-03-20T06:20:19.311Z,98199.50
2023-03-20T06:22:47.853Z,98202.31
2023-03-20T06:25:16.712Z,98211.31
2023-03-20T06:27:45.226Z,98211.66
2023-03-20T06:30:16.276Z,98217.59
2023-03-20T06:32:44.692Z,98222.81
2023-03-20T06:35:13.744Z,98218.38
2023-03-20T06:37:42.312Z,98223.41
2023-03-20T06:40:11.928Z,98228.16
2023-03-20T06:42:40.143Z,98233.41
2023-03-20T06:45:09.493Z,98238.72
2023-03-20T06:47:39.091Z,98234.34
2023-03-20T06:50:08.604Z,98236.84
2023-03-20T06:52:36.878Z,98243.78
2023-03-20T06:55:06.076Z,98230.41
2023-03-20T06:57:34.670Z,98244.84
2023-03-20T07:00:04.536Z,98249.91
2023-03-20T07:02:33.514Z,98244.31
2023-03-20T07:05:03.667Z,98250.56
2023-03-20T07:07:32.706Z,98241.47
2023-03-20T07:10:01.715Z,98251.53
2023-03-20T07:12:29.982Z,98250.88
2023-03-20T07:14:58.679Z,98250.03
2023-03-20T07:17:27.176Z,98249.38
2023-03-20T07:19:55.945Z,98253.50
2023-03-20T07:22:27.307Z,98258.19
2023-03-20T07:24:55.901Z,98255.59
2023-03-20T07:27:24.239Z,98262.38
2023-03-20T07:29:52.767Z,98264.69
2023-03-20T07:32:21.185Z,98264.00
2023-03-20T07:34:50.417Z,98268.69
2023-03-20T07:37:18.851Z,98265.50
2023-03-20T07:39:48.877Z,98267.00
2023-03-20T07:42:17.819Z,98280.31
2023-03-20T07:44:46.384Z,98272.75
2023-03-20T07:47:14.744Z,98276.69
2023-03-20T07:49:43.378Z,98270.09
2023-03-20T07:52:11.798Z,98275.28
2023-03-20T07:54:40.681Z,98281.59
2023-03-20T07:57:10.334Z,98275.94
2023-03-20T07:59:39.010Z,98283.25
2023-03-20T08:02:07.364Z,98280.50
2023-03-20T08:04:36.654Z,98277.94
2023-03-20T08:07:05.073Z,98274.69
2023-03-20T08:09:33.939Z,98266.72
2023-03-20T08:12:02.327Z,98271.63
2023-03-20T08:14:32.682Z,98277.50
2023-03-20T08:17:13.829Z,98273.44
2023-03-20T08:19:43.414Z,98272.81
2023-03-20T08:22:11.682Z,98274.97
2023-03-20T08:24:40.261Z,98275.97
2023-03-20T08:27:08.612Z,98268.53
2023-03-20T08:29:38.781Z,98282.16
2023-03-20T08:32:07.652Z,98276.13
2023-03-20T08:34:36.276Z,98276.50
2023-03-20T08:37:04.922Z,98275.50
2023-03-20T08:39:34.491Z,98269.00
2023-03-20T08:42:03.165Z,98273.56
2023-03-20T08:44:31.750Z,98278.28
2023-03-20T08:47:01.401Z,98272.91
2023-03-20T08:49:29.959Z,98276.66
2023-03-20T08:51:58.305Z,98273.13
2023-03-20T08:54:27.094Z,98272.81
2023-03-20T08:56:55.358Z,98277.47
2023-03-20T08:59:24.022Z,98278.09
2023-03-20T09:01:52.269Z,98284.44
2023-03-20T09:04:22.390Z,98275.53
2023-03-20T09:06:51.799Z,98275.69
2023-03-20T09:09:22.048Z,98287.47
2023-03-20T09:11:50.694Z,98276.94
2023-03-20T09:14:19.429Z,98284.03
2023-03-20T09:16:47.830Z,98283.31
2023-03-20T09:19:19.979Z,98280.28
2023-03-20T09:21:49.710Z,98279.34
2023-03-20T09:24:18.418Z,98278.25
2023-03-20T09:26:46.750Z,98281.59
2023-03-20T09:29:15.604Z,98278.50
2023-03-20T09:31:43.938Z,98276.56
2023-03-20T09:34:12.623Z,98280.09
2023-03-20T09:36:40.919Z,98274.81
2023-03-20T09:39:11.226Z,98275.03
2023-03-20T09:41:53.225Z,98278.84
2023-03-20T09:44:38.087Z,98280.25
2023-03-20T09:47:19.675Z,98286.06
2023-03-20T09:49:58.700Z,98287.22
2023-03-20T09:52:31.612Z,98281.31
2023-03-20T09:55:04.017Z,98285.91
2023-03-20T09:57:37.233Z,98293.78
2023-03-20T10:00:10.473Z,98285.00
2023-03-20T10:02:43.446Z,98276.41
2023-03-20T10:05:19.376Z,98280.47
2023-03-20T10:07:47.924Z,98283.75
2023-03-20T10:10:20.725Z,98281.66
2023-03-20T10:12:56.300Z,98282.03
2023-03-20T10:15:34.844Z,98275.03
2023-03-20T10:18:08.435Z,98278.16
2023-03-20T10:20:39.552Z,98272.94
2023-03-20T10:23:09.368Z,98278.09
2023-03-20T10:25:44.393Z,98274.56
2023-03-20T10:28:14.210Z,98275.81
2023-03-20T10:30:52.411Z,98278.72
2023-03-20T10:33:28.396Z,98274.50
2023-03-20T10:36:06.438Z,98279.72
2023-03-20T10:38:39.778Z,98277.19
2023-03-20T10:41:13.864Z,98276.53
2023-03-20T10:43:43.516Z,98265.31
2023-03-20T10:46:14.688Z,98266.06
2023-03-20T10:48:46.096Z,98267.41
2023-03-20T10:51:16.665Z,98264.75
2023-03-20T10:53:48.509Z,98268.84
2023-03-20T10:56:22.763Z,98262.50
2023-03-20T10:58:55.938Z,98252.41
2023-03-20T11:01:24.534Z,98248.00
2023-03-20T11:03:52.918Z,98251.06
2023-03-20T11:06:24.116Z,98246.44
2023-03-20T11:08:54.388Z,98236.94
2023-03-20T11:11:25.990Z,98248.00
2023-03-20T11:13:54.483Z,98239.53
2023-03-20T11:16:25.577Z,98252.75
2023-03-20T11:18:55.161Z,98237.38
2023-03-20T11:21:26.302Z,98237.63
2023-03-20T11:23:54.590Z,98235.09
2023-03-20T11:26:36.161Z,98236.75
2023-03-20T11:29:07.507Z,98233.03
2023-03-20T11:31:37.590Z,98228.72
2023-03-20T11:34:21.536Z,98225.84
2023-03-20T11:37:09.829Z,98207.81
2023-03-20T11:39:41.388Z,98219.75
2023-03-20T11:42:24.770Z,98222.94
2023-03-20T11:44:59.355Z,98210.19
2023-03-20T11:47:29.385Z,98212.59
2023-03-20T11:50:00.091Z,98210.44
2023-03-20T11:52:31.189Z,98209.47
2023-03-20T11:55:00.927Z,98204.59
2023-03-20T11:57:36.615Z,98205.19
2023-03-20T12:00:16.844Z,98204.81
2023-03-20T12:02:46.333Z,98203.56
2023-03-20T12:05:30.092Z,98202.44
2023-03-20T12:07:59.619Z,98204.28
2023-03-20T12:10:32.108Z,98204.09
2023-03-20T12:13:05.300Z,98201.69
2023-03-20T12:15:35.995Z,98197.19
2023-03-20T12:18:08.197Z,98195.38
2023-03-20T12:20:39.692Z,98202.03
2023-03-20T12:23:14.312Z,98201.94
2023-03-20T12:25:49.447Z,98201.50
2023-03-20T12:28:25.626Z,98196.72
2023-03-20T12:31:05.966Z,98193.91
2023-03-20T12:33:44.576Z,98198.34
2023-03-20T12:36:16.640Z,98202.41
2023-03-20T12:38:46.093Z,98201.34
2023-03-20T12:41:17.064Z,98191.94
2023-03-20T12:44:06.961Z,98197.16
2023-03-20T12:46:42.276Z,98202.06
2023-03-20T12:49:18.103Z,98200.97
2023-03-20T12:51:53.761Z,98197.69
2023-03-20T12:54:31.443Z,98194.91
2023-03-20T12:57:07.369Z,98196.31
2023-03-20T12:59:47.628Z,98195.31
2023-03-20T13:02:28.333Z,98195.56
2023-03-20T13:05:05.602Z,98201.34
2023-03-20T13:07:46.632Z,98198.78
2023-03-20T13:10:21.890Z,98195.66
2023-03-20T13:13:05.693Z,98201.66
2023-03-20T13:15:48.328Z,98187.19
2023-03-20T13:18:21.155Z,98185.69
2023-03-20T13:20:52.180Z,98179.69
2023-03-20T13:23:27.584Z,98184.28
2023-03-20T13:26:09.079Z,98187.81
2023-03-20T13:28:42.608Z,98184.69
2023-03-20T13:31:22.445Z,98181.91
2023-03-20T13:33:55.046Z,98189.44
2023-03-20T13:36:35.777Z,98173.34
2023-03-20T13:39:07.792Z,98179.91
2023-03-20T13:41:37.822Z,98178.31
2023-03-20T13:44:07.520Z,98181.06
2023-03-20T13:46:40.258Z,98172.28
2023-03-20T13:49:15.433Z,98177.84
2023-03-20T13:51:49.327Z,98177.56
2023-03-20T13:54:40.162Z,98183.59
2023-03-20T13:57:16.081Z,98180.28
2023-03-20T14:00:00.708Z,98191.63
2023-03-20T14:02:36.806Z,98174.53
2023-03-20T14:05:07.750Z,98180.47
2023-03-20T14:07:38.888Z,98176.03
2023-03-20T14:10:35.334Z,98177.81
2023-03-20T14:13:08.174Z,98176.38
2023-03-20T14:15:44.326Z,98168.84
2023-03-20T14:18:19.310Z,98176.47
2023-03-20T14:20:56.467Z,98177.41
2023-03-20T14:23:45.400Z,98174.97
2023-03-20T14:26:25.834Z,98175.41
2023-03-20T14:29:01.348Z,98176.97
2023-03-20T14:31:42.530Z,98173.25
2023-03-20T14:34:32.321Z,98180.44
2023-03-20T14:37:06.115Z,98176.09
2023-03-20T14:39:48.186Z,98180.72
2023-03-20T14:42:37.760Z,98182.38
2023-03-20T14:45:32.071Z,98176.34
2023-03-20T14:48:13.129Z,98174.88
2023-03-20T14:50:54.908Z,98177.56
2023-03-20T14:53:27.425Z,98189.88
2023-03-20T14:56:08.426Z,98185.88
2023-03-20T14:58:59.428Z,98178.19
2023-03-20T15:01:49.435Z,98172.56
2023-03-20T15:04:37.412Z,98172.22
2023-03-20T15:07:16.212Z,98167.38
2023-03-20T15:09:47.458Z,98167.09
2023-03-20T15:12:19.532Z,98166.72
2023-03-20T15:14:57.203Z,98164.78
2023-03-20T15:17:28.477Z,98156.03
2023-03-20T15:20:06.674Z,98157.59
2023-03-20T15:22:40.296Z,98151.81
2023-03-20T15:25:22.217Z,98152.09
2023-03-20T15:27:54.271Z,98156.88
2023-03-20T15:30:26.190Z,98163.84
2023-03-20T15:32:57.338Z,98162.88
2023-03-20T15:35:28.120Z,98162.38
2023-03-20T15:38:03.513Z,98164.16
2023-03-20T15:40:47.639Z,98164.16
2023-03-20T15:43:23.434Z,98163.50
2023-03-20T15:46:17.381Z,98170.94
2023-03-20T15:48:51.490Z,98161.22
2023-03-20T15:51:28.916Z,98161.72
2023-03-20T15:54:08.131Z,98156.19
2023-03-20T15:56:43.060Z,98163.19
2023-03-20T15:59:15.787Z,98163.50
2023-03-20T16:01:54.215Z,98160.53
2023-03-20T16:04:33.840Z,98161.09
2023-03-20T16:07:05.697Z,98162.91
2023-03-20T16:09:44.681Z,98158.25
2023-03-20T16:12:17.658Z,98156.19
2023-03-20T16:14:53.618Z,98159.81
2023-03-20T16:17:24.982Z,98166.28
2023-03-20T16:19:55.083Z,98169.56
2023-03-20T16:22:27.060Z,98160.28
2023-03-20T16:24:59.047Z,98166.91
2023-03-20T16:27:30.147Z,98162.22
2023-03-20T16:29:59.076Z,98162.00
2023-03-20T16:32:35.855Z,98162.38
2023-03-20T16:35:07.646Z,98161.72
2023-03-20T16:37:39.653Z,98173.59
2023-03-20T16:40:18.241Z,98172.50
2023-03-20T16:42:47.455Z,98172.09
2023-03-20T16:45:24.223Z,98175.69
2023-03-20T16:48:09.660Z,98177.31
2023-03-20T16:50:40.900Z,98185.44
2023-03-20T16:53:11.714Z,98184.94
2023-03-20T16:55:45.020Z,98175.00
2023-03-20T16:58:19.536Z,98178.88
2023-03-20T17:00:51.128Z,98175.31
2023-03-20T17:03:30.534Z,98183.88
2023-03-20T17:06:02.884Z,98180.94
2023-03-20T17:08:39.278Z,98184.47
2023-03-20T17:11:13.629Z,98183.72
2023-03-20T17:13:43.394Z,98191.81
2023-03-20T17:16:21.743Z,98187.91
2023-03-20T17:19:02.640Z,98193.75
2023-03-20T17:21:31.950Z,98188.91
2023-03-20T17:24:00.882Z,98193.44
2023-03-20T17:26:33.714Z,98191.00
2023-03-20T17:29:02.641Z,98185.31
2023-03-20T17:31:32.340Z,98182.88
2023-03-20T17:34:01.274Z,98188.47
2023-03-20T17:36:38.934Z,98187.19
2023-03-20T17:39:07.689Z,98193.19
2023-03-20T17:41:38.117Z,98194.53
2023-03-20T17:44:07.288Z,98189.66
2023-03-20T17:46:53.820Z,98187.53
2023-03-20T17:49:28.573Z,98192.06
2023-03-20T17:52:00.385Z,98192.56
2023-03-20T17:54:28.981Z,98198.88
2023-03-20T17:56:59.384Z,98199.81
2023-03-20T17:59:31.353Z,98201.81
2023-03-20T18:04:39.119Z,98208.66
2023-03-20T18:07:09.499Z,98211.09
2023-03-20T18:09:38.335Z,98208.97
2023-03-20T18:12:13.613Z,98211.09
2023-03-20T18:14:45.326Z,98210.09
2023-03-20T18:17:15.805Z,98212.69
2023-03-20T18:19:45.867Z,98211.31
2023-03-20T18:22:34.618Z,98210.97
2023-03-20T18:25:05.171Z,98212.75
2023-03-20T18:27:36.303Z,98217.22
2023-03-20T18:30:12.738Z,98213.75
2023-03-20T18:32:43.116Z,98214.72
2023-03-20T18:35:12.563Z,98217.28
2023-03-20T18:37:41.378Z,98202.53
2023-03-20T18:40:12.618Z,98206.94
2023-03-20T18:42:42.411Z,98220.47
2023-03-20T18:45:11.016Z,98213.84
2023-03-20T18:47:39.640Z,98217.72
2023-03-20T18:50:08.432Z,98213.75
2023-03-20T18:52:38.516Z,98212.31
2023-03-20T18:55:06.716Z,98213.34
2023-03-20T18:57:36.670Z,98213.69
2023-03-20T19:00:07.594Z,98215.94
2023-03-20T19:02:36.016Z,98212.94
2023-03-20T19:05:04.535Z,98207.44
2023-03-20T19:07:32.883Z,98215.53
2023-03-20T19:10:00.851Z,98205.00
2023-03-20T19:12:29.144Z,98209.44
2023-03-20T19:14:57.257Z,98203.72
2023-03-20T19:17:26.987Z,98212.31
2023-03-20T19:19:55.002Z,98209.53
2023-03-20T19:22:29.676Z,98204.50
2023-03-20T19:24:58.011Z,98206.31
2023-03-20T19:27:26.314Z,98207.66
2023-03-20T19:29:57.196Z,98208.31
2023-03-20T19:32:26.961Z,98205.69
2023-03-20T19:35:40.919Z,98205.38
2023-03-20T19:37:43.699Z,98204.19
2023-03-20T19:40:12.886Z,98200.22
2023-03-20T19:43:01.660Z,98207.84
2023-03-20T19:45:29.873Z,98205.44
2023-03-20T19:47:59.885Z,98206.59
2023-03-20T19:50:30.340Z,98202.56
2023-03-20T19:52:59.175Z,98209.06
2023-03-20T19:55:27.882Z,98211.72
2023-03-20T19:57:57.274Z,98211.06
2023-03-20T20:00:56.396Z,98208.81
2023-03-20T20:03:18.219Z,98202.09
2023-03-20T20:05:46.530Z,98203.06
2023-03-20T20:08:28.315Z,98203.38
2023-03-20T20:10:58.107Z,98199.75
2023-03-20T20:13:27.797Z,98204.72
2023-03-20T20:15:55.818Z,98212.91
2023-03-20T20:18:26.259Z,98206.09
2023-03-20T20:21:39.451Z,98215.44
2023-03-20T20:23:44.127Z,98219.53
2023-03-20T20:26:12.135Z,98223.50
2023-03-20T20:28:40.432Z,98218.41
2023-03-20T20:31:08.585Z,98229.00
2023-03-20T20:33:39.549Z,98223.81
2023-03-20T20:37:01.865Z,98229.81
2023-03-20T20:39:00.209Z,98224.09
2023-03-20T20:41:29.389Z,98219.34
2023-03-20T20:44:15.294Z,98226.25
2023-03-20T20:46:44.705Z,98228.06
2023-03-20T20:49:19.537Z,98222.53
2023-03-20T20:51:48.405Z,98226.09
2023-03-20T20:54:16.584Z,98223.53
2023-03-20T20:56:44.954Z,98216.09
2023-03-20T20:59:13.171Z,98213.59
2023-03-20T21:01:41.719Z,98219.66
2023-03-20T21:04:11.522Z,98217.34
2023-03-20T21:07:08.051Z,98221.25
2023-03-20T21:09:29.820Z,98216.50
2023-03-20T21:11:58.125Z,98218.38
2023-03-20T21:14:26.355Z,98219.19
2023-03-20T21:16:57.314Z,98223.25
2023-03-20T21:19:25.724Z,98218.88
2023-03-20T21:21:55.604Z,98221.13
2023-03-20T21:24:32.032Z,98219.28
2023-03-20T21:27:01.393Z,98210.22
2023-03-20T21:29:29.601Z,98212.19
2023-03-20T21:31:58.032Z,98214.56
2023-03-20T21:34:26.203Z,98219.06
2023-03-20T21:36:57.263Z,98213.28
2023-03-20T21:39:25.492Z,98215.75
2023-03-20T21:41:53.711Z,98224.66
2023-03-20T21:45:01.035Z,98230.66
2023-03-20T21:47:58.617Z,98225.34
2023-03-20T21:50:41.808Z,98215.38
2023-03-20T21:53:34.177Z,98219.94
2023-03-20T21:59:03.610Z,98213.53
2023-03-20T22:04:54.909Z,98209.66
2023-03-20T22:07:32.958Z,98206.28
2023-03-20T22:10:18.340Z,98210.97
2023-03-20T22:13:14.285Z,98212.72
2023-03-20T22:15:54.165Z,98217.19
2023-03-20T22:24:37.587Z,98202.84
2023-03-20T22:30:04.738Z,98207.22
2023-03-20T22:32:48.546Z,98202.25
2023-03-20T22:35:51.656Z,98201.28
2023-03-20T22:38:41.608Z,98208.66
2023-03-20T22:46:41.873Z,98188.97
2023-03-20T22:48:59.008Z,98201.06
2023-03-20T22:51:34.174Z,98194.59
2023-03-20T22:54:04.506Z,98197.03
2023-03-20T22:56:32.989Z,98200.41
2023-03-20T22:59:01.610Z,98197.50
2023-03-20T23:01:31.405Z,98197.09
2023-03-20T23:03:59.966Z,98191.78
2023-03-20T23:06:28.655Z,98185.53
2023-03-20T23:09:03.128Z,98196.69
2023-03-20T23:11:34.108Z,98186.03
2023-03-20T23:14:08.696Z,98180.50
2023-03-20T23:16:41.789Z,98190.59
2023-03-20T23:19:10.532Z,98193.34
2023-03-20T23:21:41.560Z,98196.38
2023-03-20T23:24:10.432Z,98187.03
2023-03-20T23:26:38.827Z,98184.16
2023-03-20T23:29:07.497Z,98187.28
2023-03-20T23:31:35.882Z,98179.22
2023-03-20T23:34:05.944Z,98177.75
2023-03-20T23:36:37.243Z,98183.69
2023-03-20T23:39:07.967Z,98176.34
2023-03-20T23:42:04.716Z,98179.63
2023-03-20T23:44:25.220Z,98177.22
2023-03-20T23:46:54.828Z,98173.78
2023-03-20T23:49:24.876Z,98181.44
2023-03-20T23:51:53.327Z,98173.75
2023-03-20T23:54:21.971Z,98178.38
2023-03-20T23:56:50.765Z,98171.66
2023-03-20T23:59:21.945Z,98175.13
